sensor_id;sensor_type;location;lat;lon;timestamp;temperature;humidity
4312;DHT22;2169;49.086;9.284;2023-01-05T00:02:16;12.10;72.20
4312;DHT22;2169;49.086;9.284;2023-01-05T00:04:44;12.10;72.20
4312;DHT22;2169;49.086;9.284;2023-01-05T00:07:11;12.10;72.20
4312;DHT22;2169;49.086;9.284;2023-01-05T00:09:38;12.10;72.20
4312;DHT22;2169;49.086;9.284;2023-01-05T00:12:07;12.10;72.20
4312;DHT22;2169;49.086;9.284;2023-01-05T00:14:51;12.10;72.20
4312;DHT22;2169;49.086;9.284;2023-01-05T00:17:35;12.10;72.30
4312;DHT22;2169;49.086;9.284;2023-01-05T00:20:20;12.00;72.20
4312;DHT22;2169;49.086;9.284;2023-01-05T00:23:05;12.00;72.20
4312;DHT22;2169;49.086;9.284;2023-01-05T00:25:35;12.00;72.20
4312;DHT22;2169;49.086;9.284;2023-01-05T00:28:04;12.00;72.20
4312;DHT22;2169;49.086;9.284;2023-01-05T00:30:33;12.00;72.30
4312;DHT22;2169;49.086;9.284;2023-01-05T00:33:00;12.00;72.30
4312;DHT22;2169;49.086;9.284;2023-01-05T00:35:28;12.00;72.40
4312;DHT22;2169;49.086;9.284;2023-01-05T00:37:55;12.00;72.40
4312;DHT22;2169;49.086;9.284;2023-01-05T00:40:22;12.00;72.40
4312;DHT22;2169;49.086;9.284;2023-01-05T00:42:48;12.00;72.50
4312;DHT22;2169;49.086;9.284;2023-01-05T00:45:17;12.00;72.50
4312;DHT22;2169;49.086;9.284;2023-01-05T00:47:45;12.00;72.70
4312;DHT22;2169;49.086;9.284;2023-01-05T00:50:14;12.00;72.70
4312;DHT22;2169;49.086;9.284;2023-01-05T00:52:41;12.00;72.80
4312;DHT22;2169;49.086;9.284;2023-01-05T00:55:09;12.00;72.90
4312;DHT22;2169;49.086;9.284;2023-01-05T00:57:36;12.00;73.00
4312;DHT22;2169;49.086;9.284;2023-01-05T01:00:04;12.00;73.00
4312;DHT22;2169;49.086;9.284;2023-01-05T01:02:32;12.00;73.10
4312;DHT22;2169;49.086;9.284;2023-01-05T01:04:59;12.00;73.20
4312;DHT22;2169;49.086;9.284;2023-01-05T01:07:26;12.00;73.20
4312;DHT22;2169;49.086;9.284;2023-01-05T01:09:53;12.00;73.30
4312;DHT22;2169;49.086;9.284;2023-01-05T01:12:20;12.00;73.40
4312;DHT22;2169;49.086;9.284;2023-01-05T01:14:47;12.00;73.40
4312;DHT22;2169;49.086;9.284;2023-01-05T01:17:14;12.00;73.60
4312;DHT22;2169;49.086;9.284;2023-01-05T01:19:42;12.00;73.60
4312;DHT22;2169;49.086;9.284;2023-01-05T01:22:11;12.00;73.70
4312;DHT22;2169;49.086;9.284;2023-01-05T01:24:38;12.00;73.70
4312;DHT22;2169;49.086;9.284;2023-01-05T01:27:05;12.10;73.90
4312;DHT22;2169;49.086;9.284;2023-01-05T01:29:31;12.10;74.10
4312;DHT22;2169;49.086;9.284;2023-01-05T01:31:58;12.10;74.10
4312;DHT22;2169;49.086;9.284;2023-01-05T01:34:25;12.10;74.10
4312;DHT22;2169;49.086;9.284;2023-01-05T01:36:55;12.10;74.10
4312;DHT22;2169;49.086;9.284;2023-01-05T01:39:21;12.20;74.20
4312;DHT22;2169;49.086;9.284;2023-01-05T01:41:48;12.20;74.30
4312;DHT22;2169;49.086;9.284;2023-01-05T01:44:51;12.20;74.30
4312;DHT22;2169;49.086;9.284;2023-01-05T01:47:31;12.20;74.30
4312;DHT22;2169;49.086;9.284;2023-01-05T01:50:03;12.20;74.30
4312;DHT22;2169;49.086;9.284;2023-01-05T01:52:32;12.20;74.30
4312;DHT22;2169;49.086;9.284;2023-01-05T01:55:02;12.20;74.30
4312;DHT22;2169;49.086;9.284;2023-01-05T01:57:31;12.30;74.40
4312;DHT22;2169;49.086;9.284;2023-01-05T01:59:59;12.30;74.40
4312;DHT22;2169;49.086;9.284;2023-01-05T02:02:28;12.30;74.40
4312;DHT22;2169;49.086;9.284;2023-01-05T02:04:58;12.30;74.40
4312;DHT22;2169;49.086;9.284;2023-01-05T02:07:28;12.30;74.40
4312;DHT22;2169;49.086;9.284;2023-01-05T02:09:57;12.30;74.40
4312;DHT22;2169;49.086;9.284;2023-01-05T02:12:34;12.30;74.40
4312;DHT22;2169;49.086;9.284;2023-01-05T02:15:13;12.30;74.40
4312;DHT22;2169;49.086;9.284;2023-01-05T02:17:53;12.30;74.30
4312;DHT22;2169;49.086;9.284;2023-01-05T02:20:44;12.30;74.40
4312;DHT22;2169;49.086;9.284;2023-01-05T02:26:31;12.40;74.40
4312;DHT22;2169;49.086;9.284;2023-01-05T02:29:39;12.30;74.30
4312;DHT22;2169;49.086;9.284;2023-01-05T02:32:14;12.40;74.40
4312;DHT22;2169;49.086;9.284;2023-01-05T02:34:48;12.40;74.40
4312;DHT22;2169;49.086;9.284;2023-01-05T02:37:25;12.40;74.40
4312;DHT22;2169;49.086;9.284;2023-01-05T02:39:56;12.40;74.40
4312;DHT22;2169;49.086;9.284;2023-01-05T02:42:26;12.40;74.30
4312;DHT22;2169;49.086;9.284;2023-01-05T02:44:53;12.40;74.40
4312;DHT22;2169;49.086;9.284;2023-01-05T02:47:37;12.40;74.60
4312;DHT22;2169;49.086;9.284;2023-01-05T02:50:08;12.40;75.40
4312;DHT22;2169;49.086;9.284;2023-01-05T02:52:41;12.40;74.70
4312;DHT22;2169;49.086;9.284;2023-01-05T02:55:12;12.40;74.80
4312;DHT22;2169;49.086;9.284;2023-01-05T02:57:43;12.40;74.80
4312;DHT22;2169;49.086;9.284;2023-01-05T03:00:14;12.40;74.90
4312;DHT22;2169;49.086;9.284;2023-01-05T03:02:45;12.40;74.80
4312;DHT22;2169;49.086;9.284;2023-01-05T03:05:17;12.40;74.80
4312;DHT22;2169;49.086;9.284;2023-01-05T03:07:47;12.40;74.80
4312;DHT22;2169;49.086;9.284;2023-01-05T03:10:15;12.40;74.70
4312;DHT22;2169;49.086;9.284;2023-01-05T03:13:04;12.50;74.70
4312;DHT22;2169;49.086;9.284;2023-01-05T03:15:50;12.50;74.60
4312;DHT22;2169;49.086;9.284;2023-01-05T03:18:25;12.50;74.40
4312;DHT22;2169;49.086;9.284;2023-01-05T03:20:53;12.50;74.30
4312;DHT22;2169;49.086;9.284;2023-01-05T03:23:21;12.50;74.20
4312;DHT22;2169;49.086;9.284;2023-01-05T03:26:07;12.50;74.10
4312;DHT22;2169;49.086;9.284;2023-01-05T03:28:55;12.50;74.10
4312;DHT22;2169;49.086;9.284;2023-01-05T03:31:45;12.50;74.70
4312;DHT22;2169;49.086;9.284;2023-01-05T03:34:38;12.50;74.00
4312;DHT22;2169;49.086;9.284;2023-01-05T03:37:27;12.50;73.90
4312;DHT22;2169;49.086;9.284;2023-01-05T03:39:56;12.50;73.90
4312;DHT22;2169;49.086;9.284;2023-01-05T03:42:22;12.50;73.90
4312;DHT22;2169;49.086;9.284;2023-01-05T03:44:49;12.50;73.90
4312;DHT22;2169;49.086;9.284;2023-01-05T03:47:16;12.50;73.90
4312;DHT22;2169;49.086;9.284;2023-01-05T03:49:44;12.50;73.90
4312;DHT22;2169;49.086;9.284;2023-01-05T03:52:11;12.50;73.80
4312;DHT22;2169;49.086;9.284;2023-01-05T03:54:37;12.50;73.80
4312;DHT22;2169;49.086;9.284;2023-01-05T03:57:04;12.50;73.70
4312;DHT22;2169;49.086;9.284;2023-01-05T03:59:31;12.50;73.70
4312;DHT22;2169;49.086;9.284;2023-01-05T04:01:58;12.50;73.70
4312;DHT22;2169;49.086;9.284;2023-01-05T04:04:24;12.50;73.70
4312;DHT22;2169;49.086;9.284;2023-01-05T04:06:52;12.50;73.70
4312;DHT22;2169;49.086;9.284;2023-01-05T04:09:19;12.50;73.70
4312;DHT22;2169;49.086;9.284;2023-01-05T04:11:46;12.50;73.60
4312;DHT22;2169;49.086;9.284;2023-01-05T04:14:12;12.50;73.70
4312;DHT22;2169;49.086;9.284;2023-01-05T04:16:39;12.50;73.70
4312;DHT22;2169;49.086;9.284;2023-01-05T04:19:06;12.50;73.70
4312;DHT22;2169;49.086;9.284;2023-01-05T04:21:33;12.50;74.40
4312;DHT22;2169;49.086;9.284;2023-01-05T04:24:01;12.50;73.70
4312;DHT22;2169;49.086;9.284;2023-01-05T04:26:28;12.50;73.80
4312;DHT22;2169;49.086;9.284;2023-01-05T04:28:55;12.50;73.70
4312;DHT22;2169;49.086;9.284;2023-01-05T04:31:22;12.50;73.80
4312;DHT22;2169;49.086;9.284;2023-01-05T04:33:48;12.50;73.80
4312;DHT22;2169;49.086;9.284;2023-01-05T04:36:15;12.50;73.80
4312;DHT22;2169;49.086;9.284;2023-01-05T04:38:42;12.50;73.90
4312;DHT22;2169;49.086;9.284;2023-01-05T04:41:10;12.50;74.00
4312;DHT22;2169;49.086;9.284;2023-01-05T04:43:37;12.50;74.10
4312;DHT22;2169;49.086;9.284;2023-01-05T04:46:04;12.50;74.80
4312;DHT22;2169;49.086;9.284;2023-01-05T04:48:30;12.50;74.30
4312;DHT22;2169;49.086;9.284;2023-01-05T04:50:57;12.50;74.30
4312;DHT22;2169;49.086;9.284;2023-01-05T04:53:24;12.50;74.40
4312;DHT22;2169;49.086;9.284;2023-01-05T04:55:51;12.40;74.40
4312;DHT22;2169;49.086;9.284;2023-01-05T04:58:19;12.40;74.40
4312;DHT22;2169;49.086;9.284;2023-01-05T05:00:47;12.40;74.50
4312;DHT22;2169;49.086;9.284;2023-01-05T05:03:14;12.40;74.50
4312;DHT22;2169;49.086;9.284;2023-01-05T05:05:41;12.40;74.60
4312;DHT22;2169;49.086;9.284;2023-01-05T05:08:08;12.40;74.70
4312;DHT22;2169;49.086;9.284;2023-01-05T05:10:35;12.40;74.80
4312;DHT22;2169;49.086;9.284;2023-01-05T05:13:02;12.40;74.90
4312;DHT22;2169;49.086;9.284;2023-01-05T05:15:30;12.40;74.90
4312;DHT22;2169;49.086;9.284;2023-01-05T05:17:56;12.40;74.90
4312;DHT22;2169;49.086;9.284;2023-01-05T05:20:23;12.30;74.90
4312;DHT22;2169;49.086;9.284;2023-01-05T05:22:50;12.30;74.90
4312;DHT22;2169;49.086;9.284;2023-01-05T05:25:17;12.30;74.90
4312;DHT22;2169;49.086;9.284;2023-01-05T05:27:43;12.30;74.90
4312;DHT22;2169;49.086;9.284;2023-01-05T05:30:11;12.30;74.90
4312;DHT22;2169;49.086;9.284;2023-01-05T05:32:39;12.30;75.00
4312;DHT22;2169;49.086;9.284;2023-01-05T05:35:06;12.30;74.90
4312;DHT22;2169;49.086;9.284;2023-01-05T05:37:33;12.30;75.00
4312;DHT22;2169;49.086;9.284;2023-01-05T05:40:00;12.30;74.90
4312;DHT22;2169;49.086;9.284;2023-01-05T05:42:27;12.30;75.00
4312;DHT22;2169;49.086;9.284;2023-01-05T05:44:54;12.30;75.00
4312;DHT22;2169;49.086;9.284;2023-01-05T05:47:21;12.30;75.10
4312;DHT22;2169;49.086;9.284;2023-01-05T05:49:49;12.30;75.10
4312;DHT22;2169;49.086;9.284;2023-01-05T05:52:16;12.20;75.00
4312;DHT22;2169;49.086;9.284;2023-01-05T05:54:43;12.20;75.00
4312;DHT22;2169;49.086;9.284;2023-01-05T05:57:10;12.20;75.00
4312;DHT22;2169;49.086;9.284;2023-01-05T05:59:36;12.20;74.90
4312;DHT22;2169;49.086;9.284;2023-01-05T06:02:03;12.20;74.80
4312;DHT22;2169;49.086;9.284;2023-01-05T06:04:30;12.20;75.50
4312;DHT22;2169;49.086;9.284;2023-01-05T06:06:58;12.20;74.70
4312;DHT22;2169;49.086;9.284;2023-01-05T06:09:25;12.20;74.50
4312;DHT22;2169;49.086;9.284;2023-01-05T06:11:51;12.10;74.40
4312;DHT22;2169;49.086;9.284;2023-01-05T06:14:18;12.10;74.30
4312;DHT22;2169;49.086;9.284;2023-01-05T06:16:45;12.10;74.20
4312;DHT22;2169;49.086;9.284;2023-01-05T06:19:12;12.10;74.20
4312;DHT22;2169;49.086;9.284;2023-01-05T06:21:38;12.10;74.20
4312;DHT22;2169;49.086;9.284;2023-01-05T06:24:07;12.10;74.20
4312;DHT22;2169;49.086;9.284;2023-01-05T06:26:34;12.00;74.10
4312;DHT22;2169;49.086;9.284;2023-01-05T06:29:00;12.00;74.10
4312;DHT22;2169;49.086;9.284;2023-01-05T06:31:27;12.00;74.10
4312;DHT22;2169;49.086;9.284;2023-01-05T06:33:54;12.00;74.00
4312;DHT22;2169;49.086;9.284;2023-01-05T06:36:21;12.00;74.00
4312;DHT22;2169;49.086;9.284;2023-01-05T06:38:47;12.00;74.00
4312;DHT22;2169;49.086;9.284;2023-01-05T06:41:15;12.00;74.00
4312;DHT22;2169;49.086;9.284;2023-01-05T06:43:42;12.00;74.10
4312;DHT22;2169;49.086;9.284;2023-01-05T06:46:09;11.90;73.90
4312;DHT22;2169;49.086;9.284;2023-01-05T06:48:35;11.90;73.90
4312;DHT22;2169;49.086;9.284;2023-01-05T06:51:02;11.90;73.90
4312;DHT22;2169;49.086;9.284;2023-01-05T06:53:29;11.90;74.00
4312;DHT22;2169;49.086;9.284;2023-01-05T06:55:56;11.90;74.00
4312;DHT22;2169;49.086;9.284;2023-01-05T06:58:24;11.90;74.60
4312;DHT22;2169;49.086;9.284;2023-01-05T07:00:52;11.80;73.70
4312;DHT22;2169;49.086;9.284;2023-01-05T07:03:19;11.80;73.60
4312;DHT22;2169;49.086;9.284;2023-01-05T07:05:48;11.80;73.70
4312;DHT22;2169;49.086;9.284;2023-01-05T07:08:14;11.80;73.60
4312;DHT22;2169;49.086;9.284;2023-01-05T07:10:41;11.70;73.50
4312;DHT22;2169;49.086;9.284;2023-01-05T07:13:08;11.70;73.40
4312;DHT22;2169;49.086;9.284;2023-01-05T07:15:36;11.70;73.30
4312;DHT22;2169;49.086;9.284;2023-01-05T07:18:03;11.70;73.00
4312;DHT22;2169;49.086;9.284;2023-01-05T07:20:29;11.70;72.80
4312;DHT22;2169;49.086;9.284;2023-01-05T07:22:56;11.70;72.60
4312;DHT22;2169;49.086;9.284;2023-01-05T07:25:23;11.70;72.60
4312;DHT22;2169;49.086;9.284;2023-01-05T07:27:55;11.70;72.70
4312;DHT22;2169;49.086;9.284;2023-01-05T07:30:22;11.70;72.60
4312;DHT22;2169;49.086;9.284;2023-01-05T07:32:50;11.70;72.70
4312;DHT22;2169;49.086;9.284;2023-01-05T07:35:17;11.70;72.70
4312;DHT22;2169;49.086;9.284;2023-01-05T07:37:44;11.70;72.70
4312;DHT22;2169;49.086;9.284;2023-01-05T07:40:11;11.70;72.80
4312;DHT22;2169;49.086;9.284;2023-01-05T07:42:38;11.70;72.70
4312;DHT22;2169;49.086;9.284;2023-01-05T07:45:06;11.70;72.70
4312;DHT22;2169;49.086;9.284;2023-01-05T07:47:33;11.70;72.70
4312;DHT22;2169;49.086;9.284;2023-01-05T07:50:01;11.70;72.70
4312;DHT22;2169;49.086;9.284;2023-01-05T07:52:28;11.60;72.60
4312;DHT22;2169;49.086;9.284;2023-01-05T07:54:56;11.70;72.70
4312;DHT22;2169;49.086;9.284;2023-01-05T07:57:23;11.70;72.80
4312;DHT22;2169;49.086;9.284;2023-01-05T07:59:50;11.70;72.80
4312;DHT22;2169;49.086;9.284;2023-01-05T08:02:16;11.60;72.70
4312;DHT22;2169;49.086;9.284;2023-01-05T08:04:43;11.60;72.70
4312;DHT22;2169;49.086;9.284;2023-01-05T08:07:11;11.60;72.70
4312;DHT22;2169;49.086;9.284;2023-01-05T08:09:40;11.70;72.80
4312;DHT22;2169;49.086;9.284;2023-01-05T08:12:24;11.60;72.70
4312;DHT22;2169;49.086;9.284;2023-01-05T08:14:51;11.60;72.70
4312;DHT22;2169;49.086;9.284;2023-01-05T08:17:17;11.60;72.60
4312;DHT22;2169;49.086;9.284;2023-01-05T08:19:44;11.60;72.70
4312;DHT22;2169;49.086;9.284;2023-01-05T08:22:12;11.60;72.60
4312;DHT22;2169;49.086;9.284;2023-01-05T08:24:39;11.60;72.60
4312;DHT22;2169;49.086;9.284;2023-01-05T08:27:06;11.60;72.60
4312;DHT22;2169;49.086;9.284;2023-01-05T08:29:33;11.60;72.60
4312;DHT22;2169;49.086;9.284;2023-01-05T08:32:00;11.70;72.70
4312;DHT22;2169;49.086;9.284;2023-01-05T08:34:26;11.60;72.60
4312;DHT22;2169;49.086;9.284;2023-01-05T08:36:53;11.60;72.60
4312;DHT22;2169;49.086;9.284;2023-01-05T08:39:21;11.70;72.60
4312;DHT22;2169;49.086;9.284;2023-01-05T08:41:48;11.70;72.60
4312;DHT22;2169;49.086;9.284;2023-01-05T08:44:14;11.70;72.70
4312;DHT22;2169;49.086;9.284;2023-01-05T08:46:41;11.70;72.60
4312;DHT22;2169;49.086;9.284;2023-01-05T08:49:08;11.70;72.70
4312;DHT22;2169;49.086;9.284;2023-01-05T08:51:35;11.70;72.60
4312;DHT22;2169;49.086;9.284;2023-01-05T08:54:02;11.70;72.60
4312;DHT22;2169;49.086;9.284;2023-01-05T08:56:30;11.70;72.60
4312;DHT22;2169;49.086;9.284;2023-01-05T08:58:57;11.70;72.70
4312;DHT22;2169;49.086;9.284;2023-01-05T09:01:25;11.70;72.50
4312;DHT22;2169;49.086;9.284;2023-01-05T09:03:52;11.70;72.60
4312;DHT22;2169;49.086;9.284;2023-01-05T09:06:19;11.70;72.60
4312;DHT22;2169;49.086;9.284;2023-01-05T09:08:45;11.70;72.50
4312;DHT22;2169;49.086;9.284;2023-01-05T09:11:15;11.70;72.50
4312;DHT22;2169;49.086;9.284;2023-01-05T09:13:46;11.70;72.50
4312;DHT22;2169;49.086;9.284;2023-01-05T09:16:16;11.70;72.50
4312;DHT22;2169;49.086;9.284;2023-01-05T09:18:43;11.70;72.40
4312;DHT22;2169;49.086;9.284;2023-01-05T09:21:10;11.70;72.30
4312;DHT22;2169;49.086;9.284;2023-01-05T09:23:38;11.70;72.20
4312;DHT22;2169;49.086;9.284;2023-01-05T09:26:05;11.70;72.20
4312;DHT22;2169;49.086;9.284;2023-01-05T09:28:33;11.80;72.20
4312;DHT22;2169;49.086;9.284;2023-01-05T09:31:07;11.70;72.10
4312;DHT22;2169;49.086;9.284;2023-01-05T09:33:34;11.70;72.10
4312;DHT22;2169;49.086;9.284;2023-01-05T09:36:01;11.70;72.00
4312;DHT22;2169;49.086;9.284;2023-01-05T09:38:28;11.70;72.00
4312;DHT22;2169;49.086;9.284;2023-01-05T09:41:01;11.70;72.00
4312;DHT22;2169;49.086;9.284;2023-01-05T09:43:35;11.80;72.10
4312;DHT22;2169;49.086;9.284;2023-01-05T09:46:06;11.80;72.10
4312;DHT22;2169;49.086;9.284;2023-01-05T09:48:38;11.80;72.00
4312;DHT22;2169;49.086;9.284;2023-01-05T09:51:07;11.80;72.00
4312;DHT22;2169;49.086;9.284;2023-01-05T09:53:34;11.80;71.90
4312;DHT22;2169;49.086;9.284;2023-01-05T09:56:02;11.80;71.90
4312;DHT22;2169;49.086;9.284;2023-01-05T09:58:33;11.80;71.90
4312;DHT22;2169;49.086;9.284;2023-01-05T10:01:08;11.90;72.00
4312;DHT22;2169;49.086;9.284;2023-01-05T10:03:40;11.80;71.20
4312;DHT22;2169;49.086;9.284;2023-01-05T10:06:12;11.90;71.80
4312;DHT22;2169;49.086;9.284;2023-01-05T10:08:42;11.80;71.60
4312;DHT22;2169;49.086;9.284;2023-01-05T10:11:13;11.90;71.60
4312;DHT22;2169;49.086;9.284;2023-01-05T10:14:03;11.90;71.60
4312;DHT22;2169;49.086;9.284;2023-01-05T10:16:32;11.90;71.50
4312;DHT22;2169;49.086;9.284;2023-01-05T10:19:01;11.90;71.20
4312;DHT22;2169;49.086;9.284;2023-01-05T10:21:48;11.90;71.20
4312;DHT22;2169;49.086;9.284;2023-01-05T10:24:30;11.90;71.00
4312;DHT22;2169;49.086;9.284;2023-01-05T10:27:38;11.90;70.90
4312;DHT22;2169;49.086;9.284;2023-01-05T10:30:14;11.90;70.80
4312;DHT22;2169;49.086;9.284;2023-01-05T10:32:56;11.90;70.70
4312;DHT22;2169;49.086;9.284;2023-01-05T10:35:43;11.90;70.60
4312;DHT22;2169;49.086;9.284;2023-01-05T10:38:28;11.90;70.60
4312;DHT22;2169;49.086;9.284;2023-01-05T10:41:03;11.90;70.60
4312;DHT22;2169;49.086;9.284;2023-01-05T10:46:27;12.00;70.50
4312;DHT22;2169;49.086;9.284;2023-01-05T10:48:55;12.00;70.40
4312;DHT22;2169;49.086;9.284;2023-01-05T10:51:22;12.00;70.20
4312;DHT22;2169;49.086;9.284;2023-01-05T10:53:49;12.00;70.10
4312;DHT22;2169;49.086;9.284;2023-01-05T10:56:22;12.00;70.10
4312;DHT22;2169;49.086;9.284;2023-01-05T10:59:06;12.00;69.90
4312;DHT22;2169;49.086;9.284;2023-01-05T11:01:34;12.00;69.80
4312;DHT22;2169;49.086;9.284;2023-01-05T11:04:07;12.00;69.70
4312;DHT22;2169;49.086;9.284;2023-01-05T11:06:36;12.00;69.50
4312;DHT22;2169;49.086;9.284;2023-01-05T11:09:15;12.00;69.50
4312;DHT22;2169;49.086;9.284;2023-01-05T11:11:43;12.10;69.50
4312;DHT22;2169;49.086;9.284;2023-01-05T11:14:20;12.10;69.30
4312;DHT22;2169;49.086;9.284;2023-01-05T11:16:49;12.10;69.20
4312;DHT22;2169;49.086;9.284;2023-01-05T11:19:26;12.10;69.00
4312;DHT22;2169;49.086;9.284;2023-01-05T11:21:54;12.10;68.90
4312;DHT22;2169;49.086;9.284;2023-01-05T11:24:29;12.10;68.80
4312;DHT22;2169;49.086;9.284;2023-01-05T11:26:58;12.10;68.70
4312;DHT22;2169;49.086;9.284;2023-01-05T11:29:27;12.10;68.70
4312;DHT22;2169;49.086;9.284;2023-01-05T11:32:01;12.10;68.40
4312;DHT22;2169;49.086;9.284;2023-01-05T11:34:36;12.10;69.00
4312;DHT22;2169;49.086;9.284;2023-01-05T11:37:22;12.20;68.40
4312;DHT22;2169;49.086;9.284;2023-01-05T11:39:52;12.20;68.20
4312;DHT22;2169;49.086;9.284;2023-01-05T11:42:28;12.10;68.10
4312;DHT22;2169;49.086;9.284;2023-01-05T11:44:57;12.20;68.20
4312;DHT22;2169;49.086;9.284;2023-01-05T11:47:29;12.20;68.20
4312;DHT22;2169;49.086;9.284;2023-01-05T11:50:02;12.10;68.10
4312;DHT22;2169;49.086;9.284;2023-01-05T11:52:34;12.20;68.20
4312;DHT22;2169;49.086;9.284;2023-01-05T11:55:33;12.10;68.00
4312;DHT22;2169;49.086;9.284;2023-01-05T11:58:13;12.20;68.10
4312;DHT22;2169;49.086;9.284;2023-01-05T12:00:49;12.20;68.10
4312;DHT22;2169;49.086;9.284;2023-01-05T12:03:34;12.20;68.10
4312;DHT22;2169;49.086;9.284;2023-01-05T12:06:11;12.20;68.10
4312;DHT22;2169;49.086;9.284;2023-01-05T12:08:53;12.20;68.10
4312;DHT22;2169;49.086;9.284;2023-01-05T12:11:26;12.20;68.10
4312;DHT22;2169;49.086;9.284;2023-01-05T12:14:06;12.20;68.00
4312;DHT22;2169;49.086;9.284;2023-01-05T12:16:44;12.20;68.00
4312;DHT22;2169;49.086;9.284;2023-01-05T12:19:27;12.20;68.00
4312;DHT22;2169;49.086;9.284;2023-01-05T12:22:32;12.20;68.20
4312;DHT22;2169;49.086;9.284;2023-01-05T12:25:13;12.20;68.30
4312;DHT22;2169;49.086;9.284;2023-01-05T12:28:08;12.20;68.30
4312;DHT22;2169;49.086;9.284;2023-01-05T12:30:41;12.20;68.30
4312;DHT22;2169;49.086;9.284;2023-01-05T12:33:29;12.10;68.30
4312;DHT22;2169;49.086;9.284;2023-01-05T12:36:14;12.20;68.40
4312;DHT22;2169;49.086;9.284;2023-01-05T12:38:52;12.20;68.30
4312;DHT22;2169;49.086;9.284;2023-01-05T12:41:53;12.20;68.30
4312;DHT22;2169;49.086;9.284;2023-01-05T12:44:46;12.20;68.20
4312;DHT22;2169;49.086;9.284;2023-01-05T12:47:35;12.20;68.30
4312;DHT22;2169;49.086;9.284;2023-01-05T12:50:17;12.10;68.10
4312;DHT22;2169;49.086;9.284;2023-01-05T12:52:48;12.10;68.30
4312;DHT22;2169;49.086;9.284;2023-01-05T12:55:23;12.10;68.30
4312;DHT22;2169;49.086;9.284;2023-01-05T12:57:55;12.20;68.50
4312;DHT22;2169;49.086;9.284;2023-01-05T13:00:25;12.20;68.50
4312;DHT22;2169;49.086;9.284;2023-01-05T13:02:57;12.20;69.20
4312;DHT22;2169;49.086;9.284;2023-01-05T13:05:31;12.20;68.50
4312;DHT22;2169;49.086;9.284;2023-01-05T13:08:02;12.30;68.60
4312;DHT22;2169;49.086;9.284;2023-01-05T13:10:41;12.30;68.60
4312;DHT22;2169;49.086;9.284;2023-01-05T13:13:12;12.30;68.50
4312;DHT22;2169;49.086;9.284;2023-01-05T13:15:44;12.30;68.50
4312;DHT22;2169;49.086;9.284;2023-01-05T13:18:17;12.20;68.40
4312;DHT22;2169;49.086;9.284;2023-01-05T13:20:47;12.20;68.30
4312;DHT22;2169;49.086;9.284;2023-01-05T13:23:19;12.20;68.40
4312;DHT22;2169;49.086;9.284;2023-01-05T13:25:53;12.20;68.30
4312;DHT22;2169;49.086;9.284;2023-01-05T13:28:22;12.20;68.30
4312;DHT22;2169;49.086;9.284;2023-01-05T13:31:12;12.20;68.30
4312;DHT22;2169;49.086;9.284;2023-01-05T13:33:58;12.20;68.30
4312;DHT22;2169;49.086;9.284;2023-01-05T13:36:41;12.20;68.30
4312;DHT22;2169;49.086;9.284;2023-01-05T13:39:32;12.20;68.30
4312;DHT22;2169;49.086;9.284;2023-01-05T13:42:24;12.30;68.30
4312;DHT22;2169;49.086;9.284;2023-01-05T13:45:30;12.30;68.30
4312;DHT22;2169;49.086;9.284;2023-01-05T13:48:14;12.30;68.30
4312;DHT22;2169;49.086;9.284;2023-01-05T13:51:05;12.30;69.00
4312;DHT22;2169;49.086;9.284;2023-01-05T13:53:39;12.30;68.30
4312;DHT22;2169;49.086;9.284;2023-01-05T13:56:13;12.20;68.10
4312;DHT22;2169;49.086;9.284;2023-01-05T13:58:44;12.20;68.20
4312;DHT22;2169;49.086;9.284;2023-01-05T14:01:14;12.20;68.30
4312;DHT22;2169;49.086;9.284;2023-01-05T14:03:48;12.20;68.50
4312;DHT22;2169;49.086;9.284;2023-01-05T14:06:19;12.20;68.60
4312;DHT22;2169;49.086;9.284;2023-01-05T14:08:52;12.20;68.70
4312;DHT22;2169;49.086;9.284;2023-01-05T14:11:21;12.20;68.70
4312;DHT22;2169;49.086;9.284;2023-01-05T14:13:54;12.20;68.80
4312;DHT22;2169;49.086;9.284;2023-01-05T14:16:51;12.20;68.80
4312;DHT22;2169;49.086;9.284;2023-01-05T14:19:43;12.20;68.80
4312;DHT22;2169;49.086;9.284;2023-01-05T14:22:36;12.20;68.80
4312;DHT22;2169;49.086;9.284;2023-01-05T14:28:38;12.20;68.90
4312;DHT22;2169;49.086;9.284;2023-01-05T14:31:34;12.20;68.80
4312;DHT22;2169;49.086;9.284;2023-01-05T14:34:03;12.20;68.70
4312;DHT22;2169;49.086;9.284;2023-01-05T14:36:34;12.20;68.70
4312;DHT22;2169;49.086;9.284;2023-01-05T14:39:03;12.20;68.50
4312;DHT22;2169;49.086;9.284;2023-01-05T14:41:31;12.20;68.50
4312;DHT22;2169;49.086;9.284;2023-01-05T14:44:02;12.20;68.40
4312;DHT22;2169;49.086;9.284;2023-01-05T14:46:45;12.20;68.40
4312;DHT22;2169;49.086;9.284;2023-01-05T14:49:28;12.20;68.30
4312;DHT22;2169;49.086;9.284;2023-01-05T14:51:57;12.20;68.20
4312;DHT22;2169;49.086;9.284;2023-01-05T14:54:35;12.20;68.20
4312;DHT22;2169;49.086;9.284;2023-01-05T14:57:34;12.20;68.00
4312;DHT22;2169;49.086;9.284;2023-01-05T15:00:05;12.20;68.50
4312;DHT22;2169;49.086;9.284;2023-01-05T15:02:41;12.10;67.70
4312;DHT22;2169;49.086;9.284;2023-01-05T15:05:13;12.20;67.80
4312;DHT22;2169;49.086;9.284;2023-01-05T15:07:45;12.20;67.70
4312;DHT22;2169;49.086;9.284;2023-01-05T15:10:23;12.10;67.60
4312;DHT22;2169;49.086;9.284;2023-01-05T15:13:10;12.10;67.50
4312;DHT22;2169;49.086;9.284;2023-01-05T15:15:44;12.10;67.60
4312;DHT22;2169;49.086;9.284;2023-01-05T15:21:27;12.10;67.50
4312;DHT22;2169;49.086;9.284;2023-01-05T15:27:34;12.10;67.60
4312;DHT22;2169;49.086;9.284;2023-01-05T15:30:31;12.10;67.60
4312;DHT22;2169;49.086;9.284;2023-01-05T15:33:08;12.10;67.60
4312;DHT22;2169;49.086;9.284;2023-01-05T15:35:42;12.10;67.70
4312;DHT22;2169;49.086;9.284;2023-01-05T15:38:19;12.00;67.60
4312;DHT22;2169;49.086;9.284;2023-01-05T15:40:47;12.10;67.70
4312;DHT22;2169;49.086;9.284;2023-01-05T15:43:16;12.00;67.70
4312;DHT22;2169;49.086;9.284;2023-01-05T15:45:48;12.00;67.70
4312;DHT22;2169;49.086;9.284;2023-01-05T15:48:26;12.00;67.80
4312;DHT22;2169;49.086;9.284;2023-01-05T15:50:56;12.10;68.50
4312;DHT22;2169;49.086;9.284;2023-01-05T15:53:26;12.00;67.80
4312;DHT22;2169;49.086;9.284;2023-01-05T15:55:54;12.00;67.80
4312;DHT22;2169;49.086;9.284;2023-01-05T15:58:22;12.00;67.90
4312;DHT22;2169;49.086;9.284;2023-01-05T16:01:04;12.00;67.90
4312;DHT22;2169;49.086;9.284;2023-01-05T16:03:33;12.00;67.90
4312;DHT22;2169;49.086;9.284;2023-01-05T16:06:04;11.90;67.90
4312;DHT22;2169;49.086;9.284;2023-01-05T16:08:34;12.00;67.90
4312;DHT22;2169;49.086;9.284;2023-01-05T16:11:04;11.90;67.90
4312;DHT22;2169;49.086;9.284;2023-01-05T16:13:36;11.90;67.90
4312;DHT22;2169;49.086;9.284;2023-01-05T16:16:09;11.90;67.90
4312;DHT22;2169;49.086;9.284;2023-01-05T16:18:41;11.90;68.00
4312;DHT22;2169;49.086;9.284;2023-01-05T16:21:15;11.90;68.00
4312;DHT22;2169;49.086;9.284;2023-01-05T16:23:49;12.00;68.10
4312;DHT22;2169;49.086;9.284;2023-01-05T16:26:17;11.90;68.00
4312;DHT22;2169;49.086;9.284;2023-01-05T16:28:45;11.90;68.00
4312;DHT22;2169;49.086;9.284;2023-01-05T16:31:26;11.90;68.10
4312;DHT22;2169;49.086;9.284;2023-01-05T16:34:04;11.90;68.10
4312;DHT22;2169;49.086;9.284;2023-01-05T16:36:32;11.90;68.10
4312;DHT22;2169;49.086;9.284;2023-01-05T16:39:12;11.90;68.10
4312;DHT22;2169;49.086;9.284;2023-01-05T16:41:41;11.90;68.10
4312;DHT22;2169;49.086;9.284;2023-01-05T16:44:22;11.80;68.00
4312;DHT22;2169;49.086;9.284;2023-01-05T16:47:03;11.80;68.00
4312;DHT22;2169;49.086;9.284;2023-01-05T16:49:35;11.80;68.10
4312;DHT22;2169;49.086;9.284;2023-01-05T16:52:05;11.80;68.10